sensor_id;sensor_type;location;lat;lon;timestamp;temperature;humidity
12977;DHT22;6553;48.412;9.514;2024-03-06T00:02:06;18.50;64.90
12977;DHT22;6553;48.412;9.514;2024-03-06T00:04:32;18.50;64.90
12977;DHT22;6553;48.412;9.514;2024-03-06T00:06:59;18.50;64.90
12977;DHT22;6553;48.412;9.514;2024-03-06T00:09:25;18.50;64.90
12977;DHT22;6553;48.412;9.514;2024-03-06T00:11:55;18.50;65.60
12977;DHT22;6553;48.412;9.514;2024-03-06T00:14:23;18.50;64.90
12977;DHT22;6553;48.412;9.514;2024-03-06T00:16:49;18.50;64.90
12977;DHT22;6553;48.412;9.514;2024-03-06T00:19:19;18.50;64.90
12977;DHT22;6553;48.412;9.514;2024-03-06T00:21:46;18.50;64.90
12977;DHT22;6553;48.412;9.514;2024-03-06T00:24:13;18.50;64.90
12977;DHT22;6553;48.412;9.514;2024-03-06T00:26:43;18.50;64.90
12977;DHT22;6553;48.412;9.514;2024-03-06T00:29:10;18.50;64.80
12977;DHT22;6553;48.412;9.514;2024-03-06T00:31:37;18.50;64.90
12977;DHT22;6553;48.412;9.514;2024-03-06T00:34:07;18.50;64.90
12977;DHT22;6553;48.412;9.514;2024-03-06T00:36:33;18.50;64.80
12977;DHT22;6553;48.412;9.514;2024-03-06T00:38:59;18.50;64.80
12977;DHT22;6553;48.412;9.514;2024-03-06T00:41:24;18.50;64.90
12977;DHT22;6553;48.412;9.514;2024-03-06T00:43:50;18.50;64.80
12977;DHT22;6553;48.412;9.514;2024-03-06T00:46:16;18.50;64.90
12977;DHT22;6553;48.412;9.514;2024-03-06T00:48:42;18.50;64.80
12977;DHT22;6553;48.412;9.514;2024-03-06T00:51:08;18.50;64.80
12977;DHT22;6553;48.412;9.514;2024-03-06T00:53:36;18.50;64.80
12977;DHT22;6553;48.412;9.514;2024-03-06T00:56:03;18.50;64.90
12977;DHT22;6553;48.412;9.514;2024-03-06T00:58:28;18.50;64.90
12977;DHT22;6553;48.412;9.514;2024-03-06T01:00:54;18.50;64.80
12977;DHT22;6553;48.412;9.514;2024-03-06T01:03:20;18.50;64.90
12977;DHT22;6553;48.412;9.514;2024-03-06T01:05:46;18.50;65.00
12977;DHT22;6553;48.412;9.514;2024-03-06T01:08:12;18.50;65.00
12977;DHT22;6553;48.412;9.514;2024-03-06T01:10:38;18.50;65.00
12977;DHT22;6553;48.412;9.514;2024-03-06T01:13:03;18.50;65.00
12977;DHT22;6553;48.412;9.514;2024-03-06T01:15:30;18.50;64.90
12977;DHT22;6553;48.412;9.514;2024-03-06T01:17:56;18.50;64.90
12977;DHT22;6553;48.412;9.514;2024-03-06T01:20:23;18.50;65.00
12977;DHT22;6553;48.412;9.514;2024-03-06T01:22:48;18.50;64.90
12977;DHT22;6553;48.412;9.514;2024-03-06T01:25:14;18.50;65.00
12977;DHT22;6553;48.412;9.514;2024-03-06T01:27:40;18.50;65.00
12977;DHT22;6553;48.412;9.514;2024-03-06T01:30:07;18.50;65.00
12977;DHT22;6553;48.412;9.514;2024-03-06T01:32:33;18.50;65.00
12977;DHT22;6553;48.412;9.514;2024-03-06T01:34:59;18.50;64.90
12977;DHT22;6553;48.412;9.514;2024-03-06T01:37:24;18.50;64.90
12977;DHT22;6553;48.412;9.514;2024-03-06T01:39:50;18.50;65.00
12977;DHT22;6553;48.412;9.514;2024-03-06T01:42:17;18.50;65.00
12977;DHT22;6553;48.412;9.514;2024-03-06T01:44:43;18.50;64.90
12977;DHT22;6553;48.412;9.514;2024-03-06T01:47:09;18.50;65.00
12977;DHT22;6553;48.412;9.514;2024-03-06T01:49:35;18.50;64.90
12977;DHT22;6553;48.412;9.514;2024-03-06T01:52:01;18.50;64.90
12977;DHT22;6553;48.412;9.514;2024-03-06T01:54:28;18.50;64.90
12977;DHT22;6553;48.412;9.514;2024-03-06T01:56:57;18.50;65.00
12977;DHT22;6553;48.412;9.514;2024-03-06T01:59:26;18.50;65.00
12977;DHT22;6553;48.412;9.514;2024-03-06T02:01:55;18.50;64.90
12977;DHT22;6553;48.412;9.514;2024-03-06T02:04:22;18.50;64.90
12977;DHT22;6553;48.412;9.514;2024-03-06T02:06:49;18.50;64.90
12977;DHT22;6553;48.412;9.514;2024-03-06T02:09:15;18.50;64.90
12977;DHT22;6553;48.412;9.514;2024-03-06T02:11:41;18.50;64.90
12977;DHT22;6553;48.412;9.514;2024-03-06T02:14:07;18.50;64.90
12977;DHT22;6553;48.412;9.514;2024-03-06T02:16:36;18.50;64.90
12977;DHT22;6553;48.412;9.514;2024-03-06T02:19:04;18.50;64.90
12977;DHT22;6553;48.412;9.514;2024-03-06T02:21:30;18.50;64.90
12977;DHT22;6553;48.412;9.514;2024-03-06T02:23:57;18.50;64.90
12977;DHT22;6553;48.412;9.514;2024-03-06T02:26:22;18.50;64.90
12977;DHT22;6553;48.412;9.514;2024-03-06T02:28:48;18.50;65.00
12977;DHT22;6553;48.412;9.514;2024-03-06T02:31:16;18.50;64.90
12977;DHT22;6553;48.412;9.514;2024-03-06T02:33:46;18.50;64.90
12977;DHT22;6553;48.412;9.514;2024-03-06T02:36:14;18.50;65.00
12977;DHT22;6553;48.412;9.514;2024-03-06T02:38:43;18.50;65.00
12977;DHT22;6553;48.412;9.514;2024-03-06T02:41:10;18.50;65.00
12977;DHT22;6553;48.412;9.514;2024-03-06T02:43:37;18.50;65.00
12977;DHT22;6553;48.412;9.514;2024-03-06T02:46:03;18.50;65.00
12977;DHT22;6553;48.412;9.514;2024-03-06T02:48:30;18.50;65.00
12977;DHT22;6553;48.412;9.514;2024-03-06T02:50:56;18.50;65.00
12977;DHT22;6553;48.412;9.514;2024-03-06T02:53:23;18.50;65.00
12977;DHT22;6553;48.412;9.514;2024-03-06T02:55:49;18.50;65.10
12977;DHT22;6553;48.412;9.514;2024-03-06T02:58:15;18.50;65.00
12977;DHT22;6553;48.412;9.514;2024-03-06T03:00:43;18.50;65.00
12977;DHT22;6553;48.412;9.514;2024-03-06T03:03:10;18.50;65.10
12977;DHT22;6553;48.412;9.514;2024-03-06T03:05:39;18.50;65.00
12977;DHT22;6553;48.412;9.514;2024-03-06T03:08:05;18.50;65.00
12977;DHT22;6553;48.412;9.514;2024-03-06T03:10:32;18.50;65.00
12977;DHT22;6553;48.412;9.514;2024-03-06T03:13:00;18.50;65.00
12977;DHT22;6553;48.412;9.514;2024-03-06T03:15:26;18.50;64.90
12977;DHT22;6553;48.412;9.514;2024-03-06T03:17:52;18.50;65.10
12977;DHT22;6553;48.412;9.514;2024-03-06T03:20:17;18.50;64.90
12977;DHT22;6553;48.412;9.514;2024-03-06T03:22:43;18.50;64.90
12977;DHT22;6553;48.412;9.514;2024-03-06T03:25:10;18.50;65.00
12977;DHT22;6553;48.412;9.514;2024-03-06T03:27:40;18.50;65.00
12977;DHT22;6553;48.412;9.514;2024-03-06T03:30:10;18.50;64.90
12977;DHT22;6553;48.412;9.514;2024-03-06T03:32:37;18.50;64.90
12977;DHT22;6553;48.412;9.514;2024-03-06T03:35:06;18.50;65.00
12977;DHT22;6553;48.412;9.514;2024-03-06T03:37:33;18.50;65.00
12977;DHT22;6553;48.412;9.514;2024-03-06T03:39:59;18.50;65.00
12977;DHT22;6553;48.412;9.514;2024-03-06T03:42:25;18.50;65.00
12977;DHT22;6553;48.412;9.514;2024-03-06T03:44:51;18.50;65.00
12977;DHT22;6553;48.412;9.514;2024-03-06T03:47:17;18.50;65.10
12977;DHT22;6553;48.412;9.514;2024-03-06T03:49:43;18.50;65.80
12977;DHT22;6553;48.412;9.514;2024-03-06T03:52:09;18.50;65.00
12977;DHT22;6553;48.412;9.514;2024-03-06T03:54:34;18.50;65.10
12977;DHT22;6553;48.412;9.514;2024-03-06T03:57:00;18.50;65.00
12977;DHT22;6553;48.412;9.514;2024-03-06T03:59:26;18.50;65.00
12977;DHT22;6553;48.412;9.514;2024-03-06T04:01:52;18.50;65.00
12977;DHT22;6553;48.412;9.514;2024-03-06T04:04:19;18.50;64.90
12977;DHT22;6553;48.412;9.514;2024-03-06T04:06:44;18.50;65.00
12977;DHT22;6553;48.412;9.514;2024-03-06T04:09:11;18.50;65.00
12977;DHT22;6553;48.412;9.514;2024-03-06T04:11:37;18.50;64.90
12977;DHT22;6553;48.412;9.514;2024-03-06T04:14:06;18.50;64.90
12977;DHT22;6553;48.412;9.514;2024-03-06T04:16:33;18.50;65.00
12977;DHT22;6553;48.412;9.514;2024-03-06T04:19:00;18.50;65.00
12977;DHT22;6553;48.412;9.514;2024-03-06T04:21:26;18.50;64.90
12977;DHT22;6553;48.412;9.514;2024-03-06T04:23:52;18.50;65.00
12977;DHT22;6553;48.412;9.514;2024-03-06T04:26:18;18.50;65.00
12977;DHT22;6553;48.412;9.514;2024-03-06T04:28:44;18.50;65.00
12977;DHT22;6553;48.412;9.514;2024-03-06T04:31:10;18.50;65.00
12977;DHT22;6553;48.412;9.514;2024-03-06T04:33:36;18.50;65.00
12977;DHT22;6553;48.412;9.514;2024-03-06T04:36:05;18.50;65.00
12977;DHT22;6553;48.412;9.514;2024-03-06T04:38:31;18.50;65.00
12977;DHT22;6553;48.412;9.514;2024-03-06T04:40:57;18.50;65.10
12977;DHT22;6553;48.412;9.514;2024-03-06T04:43:24;18.50;65.90
12977;DHT22;6553;48.412;9.514;2024-03-06T04:45:49;18.50;65.10
12977;DHT22;6553;48.412;9.514;2024-03-06T04:48:15;18.50;65.00
12977;DHT22;6553;48.412;9.514;2024-03-06T04:50:41;18.50;65.00
12977;DHT22;6553;48.412;9.514;2024-03-06T04:53:07;18.50;65.10
12977;DHT22;6553;48.412;9.514;2024-03-06T04:55:33;18.50;65.00
12977;DHT22;6553;48.412;9.514;2024-03-06T04:57:58;18.50;65.00
12977;DHT22;6553;48.412;9.514;2024-03-06T05:00:24;18.50;65.00
12977;DHT22;6553;48.412;9.514;2024-03-06T05:02:50;18.50;65.00
12977;DHT22;6553;48.412;9.514;2024-03-06T05:05:16;18.50;65.00
12977;DHT22;6553;48.412;9.514;2024-03-06T05:07:41;18.50;65.00
12977;DHT22;6553;48.412;9.514;2024-03-06T05:10:07;18.50;65.00
12977;DHT22;6553;48.412;9.514;2024-03-06T05:12:34;18.50;65.00
12977;DHT22;6553;48.412;9.514;2024-03-06T05:15:00;18.50;64.90
12977;DHT22;6553;48.412;9.514;2024-03-06T05:17:25;18.50;64.90
12977;DHT22;6553;48.412;9.514;2024-03-06T05:19:52;18.50;64.90
12977;DHT22;6553;48.412;9.514;2024-03-06T05:22:20;18.50;64.90
12977;DHT22;6553;48.412;9.514;2024-03-06T05:24:46;18.50;65.00
12977;DHT22;6553;48.412;9.514;2024-03-06T05:27:12;18.50;65.00
12977;DHT22;6553;48.412;9.514;2024-03-06T05:29:42;18.50;65.00
12977;DHT22;6553;48.412;9.514;2024-03-06T05:32:08;18.50;65.10
12977;DHT22;6553;48.412;9.514;2024-03-06T05:34:34;18.50;65.10
12977;DHT22;6553;48.412;9.514;2024-03-06T05:37:00;18.50;65.10
12977;DHT22;6553;48.412;9.514;2024-03-06T05:39:29;18.50;65.10
12977;DHT22;6553;48.412;9.514;2024-03-06T05:42:00;18.50;65.20
12977;DHT22;6553;48.412;9.514;2024-03-06T05:44:33;18.40;65.00
12977;DHT22;6553;48.412;9.514;2024-03-06T05:47:00;18.40;65.10
12977;DHT22;6553;48.412;9.514;2024-03-06T05:49:28;18.50;65.10
12977;DHT22;6553;48.412;9.514;2024-03-06T05:51:55;18.50;65.10
12977;DHT22;6553;48.412;9.514;2024-03-06T05:54:21;18.50;65.00
12977;DHT22;6553;48.412;9.514;2024-03-06T05:56:48;18.50;65.00
12977;DHT22;6553;48.412;9.514;2024-03-06T05:59:15;18.50;65.00
12977;DHT22;6553;48.412;9.514;2024-03-06T06:01:41;18.50;65.00
12977;DHT22;6553;48.412;9.514;2024-03-06T06:04:08;18.50;65.80
12977;DHT22;6553;48.412;9.514;2024-03-06T06:06:37;18.50;65.00
12977;DHT22;6553;48.412;9.514;2024-03-06T06:09:03;18.50;65.00
12977;DHT22;6553;48.412;9.514;2024-03-06T06:11:32;18.50;65.10
12977;DHT22;6553;48.412;9.514;2024-03-06T06:13:59;18.50;65.00
12977;DHT22;6553;48.412;9.514;2024-03-06T06:16:25;18.50;65.10
12977;DHT22;6553;48.412;9.514;2024-03-06T06:18:51;18.50;65.10
12977;DHT22;6553;48.412;9.514;2024-03-06T06:21:16;18.50;65.10
12977;DHT22;6553;48.412;9.514;2024-03-06T06:23:42;18.50;65.10
12977;DHT22;6553;48.412;9.514;2024-03-06T06:26:09;18.50;65.90
12977;DHT22;6553;48.412;9.514;2024-03-06T06:28:36;18.50;65.20
12977;DHT22;6553;48.412;9.514;2024-03-06T06:31:03;18.50;65.20
12977;DHT22;6553;48.412;9.514;2024-03-06T06:33:30;18.50;65.20
12977;DHT22;6553;48.412;9.514;2024-03-06T06:35:56;18.50;65.20
12977;DHT22;6553;48.412;9.514;2024-03-06T06:38:21;18.50;66.00
12977;DHT22;6553;48.412;9.514;2024-03-06T06:40:47;18.50;65.30
12977;DHT22;6553;48.412;9.514;2024-03-06T06:43:13;18.50;65.20
12977;DHT22;6553;48.412;9.514;2024-03-06T06:45:40;18.50;65.20
12977;DHT22;6553;48.412;9.514;2024-03-06T06:48:07;18.50;65.20
12977;DHT22;6553;48.412;9.514;2024-03-06T06:50:34;18.50;65.30
12977;DHT22;6553;48.412;9.514;2024-03-06T06:53:00;18.50;65.30
12977;DHT22;6553;48.412;9.514;2024-03-06T06:55:26;18.50;65.30
12977;DHT22;6553;48.412;9.514;2024-03-06T06:57:52;18.50;65.30
12977;DHT22;6553;48.412;9.514;2024-03-06T07:00:18;18.50;65.30
12977;DHT22;6553;48.412;9.514;2024-03-06T07:02:45;18.50;65.30
12977;DHT22;6553;48.412;9.514;2024-03-06T07:05:11;18.50;65.30
12977;DHT22;6553;48.412;9.514;2024-03-06T07:07:37;18.50;65.30
12977;DHT22;6553;48.412;9.514;2024-03-06T07:10:07;18.50;65.30
12977;DHT22;6553;48.412;9.514;2024-03-06T07:12:34;18.50;65.30
12977;DHT22;6553;48.412;9.514;2024-03-06T07:15:00;18.50;65.30
12977;DHT22;6553;48.412;9.514;2024-03-06T07:17:28;18.50;65.30
12977;DHT22;6553;48.412;9.514;2024-03-06T07:19:54;18.50;65.30
12977;DHT22;6553;48.412;9.514;2024-03-06T07:22:19;18.50;65.30
12977;DHT22;6553;48.412;9.514;2024-03-06T07:24:45;18.50;65.30
12977;DHT22;6553;48.412;9.514;2024-03-06T07:27:11;18.50;65.30
12977;DHT22;6553;48.412;9.514;2024-03-06T07:29:37;18.50;65.30
12977;DHT22;6553;48.412;9.514;2024-03-06T07:32:03;18.50;65.30
12977;DHT22;6553;48.412;9.514;2024-03-06T07:34:33;18.50;65.30
12977;DHT22;6553;48.412;9.514;2024-03-06T07:36:59;18.50;65.30
12977;DHT22;6553;48.412;9.514;2024-03-06T07:39:25;18.50;65.30
12977;DHT22;6553;48.412;9.514;2024-03-06T07:41:51;18.50;65.30
12977;DHT22;6553;48.412;9.514;2024-03-06T07:44:17;18.50;65.30
12977;DHT22;6553;48.412;9.514;2024-03-06T07:46:43;18.50;65.30
12977;DHT22;6553;48.412;9.514;2024-03-06T07:49:08;18.50;65.30
12977;DHT22;6553;48.412;9.514;2024-03-06T07:51:34;18.50;65.30
12977;DHT22;6553;48.412;9.514;2024-03-06T07:54:01;18.50;65.30
12977;DHT22;6553;48.412;9.514;2024-03-06T07:56:27;18.50;65.30
12977;DHT22;6553;48.412;9.514;2024-03-06T07:58:54;18.50;65.30
12977;DHT22;6553;48.412;9.514;2024-03-06T08:01:20;18.50;65.30
12977;DHT22;6553;48.412;9.514;2024-03-06T08:03:49;18.50;65.30
12977;DHT22;6553;48.412;9.514;2024-03-06T08:06:15;18.50;65.30
12977;DHT22;6553;48.412;9.514;2024-03-06T08:08:43;18.50;65.30
12977;DHT22;6553;48.412;9.514;2024-03-06T08:11:11;18.50;65.30
12977;DHT22;6553;48.412;9.514;2024-03-06T08:13:38;18.50;65.30
12977;DHT22;6553;48.412;9.514;2024-03-06T08:16:05;18.50;65.30
12977;DHT22;6553;48.412;9.514;2024-03-06T08:18:36;18.50;65.30
12977;DHT22;6553;48.412;9.514;2024-03-06T08:21:02;18.50;65.30
12977;DHT22;6553;48.412;9.514;2024-03-06T08:23:32;18.50;65.30
12977;DHT22;6553;48.412;9.514;2024-03-06T08:25:58;18.50;65.30
12977;DHT22;6553;48.412;9.514;2024-03-06T08:28:25;18.50;65.30
12977;DHT22;6553;48.412;9.514;2024-03-06T08:30:52;18.50;66.10
12977;DHT22;6553;48.412;9.514;2024-03-06T08:33:18;18.50;65.30
12977;DHT22;6553;48.412;9.514;2024-03-06T08:35:46;18.50;65.30
12977;DHT22;6553;48.412;9.514;2024-03-06T08:38:12;18.50;65.30
12977;DHT22;6553;48.412;9.514;2024-03-06T08:40:37;18.50;65.30
12977;DHT22;6553;48.412;9.514;2024-03-06T08:43:04;18.50;65.30
12977;DHT22;6553;48.412;9.514;2024-03-06T08:45:29;18.50;65.30
12977;DHT22;6553;48.412;9.514;2024-03-06T08:47:55;18.50;65.30
12977;DHT22;6553;48.412;9.514;2024-03-06T08:50:21;18.50;65.30
12977;DHT22;6553;48.412;9.514;2024-03-06T08:52:47;18.50;65.30
12977;DHT22;6553;48.412;9.514;2024-03-06T08:55:13;18.50;65.30
12977;DHT22;6553;48.412;9.514;2024-03-06T08:57:39;18.50;65.30
12977;DHT22;6553;48.412;9.514;2024-03-06T09:00:06;18.50;65.30
12977;DHT22;6553;48.412;9.514;2024-03-06T09:02:37;18.40;65.20
12977;DHT22;6553;48.412;9.514;2024-03-06T09:05:05;18.50;65.30
12977;DHT22;6553;48.412;9.514;2024-03-06T09:07:36;18.40;65.30
12977;DHT22;6553;48.412;9.514;2024-03-06T09:10:08;18.50;65.40
12977;DHT22;6553;48.412;9.514;2024-03-06T09:12:35;18.50;65.40
12977;DHT22;6553;48.412;9.514;2024-03-06T09:15:02;18.50;65.40
12977;DHT22;6553;48.412;9.514;2024-03-06T09:17:29;18.50;65.30
12977;DHT22;6553;48.412;9.514;2024-03-06T09:19:55;18.40;65.20
12977;DHT22;6553;48.412;9.514;2024-03-06T09:22:21;18.50;65.40
12977;DHT22;6553;48.412;9.514;2024-03-06T09:24:46;18.40;65.20
12977;DHT22;6553;48.412;9.514;2024-03-06T09:27:14;18.40;65.30
12977;DHT22;6553;48.412;9.514;2024-03-06T09:29:40;18.50;65.30
12977;DHT22;6553;48.412;9.514;2024-03-06T09:32:06;18.50;65.30
12977;DHT22;6553;48.412;9.514;2024-03-06T09:34:32;18.50;65.30
12977;DHT22;6553;48.412;9.514;2024-03-06T09:36:58;18.50;65.30
12977;DHT22;6553;48.412;9.514;2024-03-06T09:39:24;18.40;65.20
12977;DHT22;6553;48.412;9.514;2024-03-06T09:41:50;18.50;65.30
12977;DHT22;6553;48.412;9.514;2024-03-06T09:44:17;18.50;65.30
12977;DHT22;6553;48.412;9.514;2024-03-06T09:46:44;18.40;65.30
12977;DHT22;6553;48.412;9.514;2024-03-06T09:49:12;18.40;65.20
12977;DHT22;6553;48.412;9.514;2024-03-06T09:51:46;18.40;65.20
12977;DHT22;6553;48.412;9.514;2024-03-06T09:54:16;18.40;65.20
12977;DHT22;6553;48.412;9.514;2024-03-06T09:56:46;18.50;65.30
12977;DHT22;6553;48.412;9.514;2024-03-06T09:59:13;18.50;65.30
12977;DHT22;6553;48.412;9.514;2024-03-06T10:02:00;18.50;65.30
12977;DHT22;6553;48.412;9.514;2024-03-06T10:04:32;18.50;65.30
12977;DHT22;6553;48.412;9.514;2024-03-06T10:07:00;18.50;65.30
12977;DHT22;6553;48.412;9.514;2024-03-06T10:09:29;18.50;65.30
12977;DHT22;6553;48.412;9.514;2024-03-06T10:11:56;18.50;65.50
12977;DHT22;6553;48.412;9.514;2024-03-06T10:14:22;18.50;65.40
12977;DHT22;6553;48.412;9.514;2024-03-06T10:16:55;18.50;65.40
12977;DHT22;6553;48.412;9.514;2024-03-06T10:19:23;18.50;65.30
12977;DHT22;6553;48.412;9.514;2024-03-06T10:21:53;18.50;65.30
12977;DHT22;6553;48.412;9.514;2024-03-06T10:24:28;18.50;65.30
12977;DHT22;6553;48.412;9.514;2024-03-06T10:26:56;18.50;65.30
12977;DHT22;6553;48.412;9.514;2024-03-06T10:29:25;18.50;65.30
12977;DHT22;6553;48.412;9.514;2024-03-06T10:31:57;18.50;65.30
12977;DHT22;6553;48.412;9.514;2024-03-06T10:34:28;18.50;65.30
12977;DHT22;6553;48.412;9.514;2024-03-06T10:39:22;18.50;65.30
12977;DHT22;6553;48.412;9.514;2024-03-06T10:41:53;18.50;65.30
12977;DHT22;6553;48.412;9.514;2024-03-06T10:44:26;18.50;65.40
12977;DHT22;6553;48.412;9.514;2024-03-06T10:47:01;18.50;65.30
12977;DHT22;6553;48.412;9.514;2024-03-06T10:49:29;18.50;65.30
12977;DHT22;6553;48.412;9.514;2024-03-06T10:52:00;18.50;65.30
12977;DHT22;6553;48.412;9.514;2024-03-06T10:54:34;18.50;65.30
12977;DHT22;6553;48.412;9.514;2024-03-06T10:57:02;18.50;65.30
12977;DHT22;6553;48.412;9.514;2024-03-06T10:59:29;18.50;65.30
12977;DHT22;6553;48.412;9.514;2024-03-06T11:01:56;18.50;65.30
12977;DHT22;6553;48.412;9.514;2024-03-06T11:04:26;18.50;65.30
12977;DHT22;6553;48.412;9.514;2024-03-06T11:07:03;18.50;65.30
12977;DHT22;6553;48.412;9.514;2024-03-06T11:09:36;18.50;65.30
12977;DHT22;6553;48.412;9.514;2024-03-06T11:12:06;18.50;65.30
12977;DHT22;6553;48.412;9.514;2024-03-06T11:14:33;18.50;65.40
12977;DHT22;6553;48.412;9.514;2024-03-06T11:17:06;18.50;65.40
12977;DHT22;6553;48.412;9.514;2024-03-06T11:28:20;18.50;65.30
12977;DHT22;6553;48.412;9.514;2024-03-06T11:33:38;18.50;65.30
12977;DHT22;6553;48.412;9.514;2024-03-06T11:38:58;18.50;65.40
12977;DHT22;6553;48.412;9.514;2024-03-06T11:41:27;18.50;65.30
12977;DHT22;6553;48.412;9.514;2024-03-06T11:43:55;18.50;65.40
12977;DHT22;6553;48.412;9.514;2024-03-06T11:46:23;18.50;65.30
12977;DHT22;6553;48.412;9.514;2024-03-06T11:49:17;18.50;65.30
12977;DHT22;6553;48.412;9.514;2024-03-06T11:51:53;18.50;65.30
12977;DHT22;6553;48.412;9.514;2024-03-06T11:54:20;18.50;65.30
12977;DHT22;6553;48.412;9.514;2024-03-06T11:56:51;18.50;65.30
12977;DHT22;6553;48.412;9.514;2024-03-06T11:59:26;18.50;65.30
12977;DHT22;6553;48.412;9.514;2024-03-06T12:01:56;18.50;65.30
12977;DHT22;6553;48.412;9.514;2024-03-06T12:04:34;18.50;65.30
12977;DHT22;6553;48.412;9.514;2024-03-06T12:07:04;18.50;65.30
12977;DHT22;6553;48.412;9.514;2024-03-06T12:09:35;18.50;65.30
12977;DHT22;6553;48.412;9.514;2024-03-06T12:12:03;18.50;65.30
12977;DHT22;6553;48.412;9.514;2024-03-06T12:14:29;18.50;65.30
12977;DHT22;6553;48.412;9.514;2024-03-06T12:16:59;18.50;65.30
12977;DHT22;6553;48.412;9.514;2024-03-06T12:19:33;18.50;65.30
12977;DHT22;6553;48.412;9.514;2024-03-06T12:22:01;18.50;65.30
12977;DHT22;6553;48.412;9.514;2024-03-06T12:24:30;18.50;65.40
12977;DHT22;6553;48.412;9.514;2024-03-06T12:27:04;18.50;65.40
12977;DHT22;6553;48.412;9.514;2024-03-06T12:29:34;18.50;65.30
12977;DHT22;6553;48.412;9.514;2024-03-06T12:32:04;18.50;65.30
12977;DHT22;6553;48.412;9.514;2024-03-06T12:34:40;18.50;65.40
12977;DHT22;6553;48.412;9.514;2024-03-06T12:37:10;18.50;65.40
12977;DHT22;6553;48.412;9.514;2024-03-06T12:39:38;18.50;65.50
12977;DHT22;6553;48.412;9.514;2024-03-06T12:42:04;18.50;65.50
12977;DHT22;6553;48.412;9.514;2024-03-06T12:44:31;18.50;65.50
12977;DHT22;6553;48.412;9.514;2024-03-06T12:46:57;18.50;65.50
12977;DHT22;6553;48.412;9.514;2024-03-06T12:49:23;18.50;65.30
12977;DHT22;6553;48.412;9.514;2024-03-06T12:51:48;18.50;65.30
12977;DHT22;6553;48.412;9.514;2024-03-06T12:54:14;18.50;65.30
12977;DHT22;6553;48.412;9.514;2024-03-06T12:56:40;18.50;65.40
12977;DHT22;6553;48.412;9.514;2024-03-06T12:59:07;18.50;65.50
12977;DHT22;6553;48.412;9.514;2024-03-06T13:01:34;18.50;65.50
12977;DHT22;6553;48.412;9.514;2024-03-06T13:04:01;18.50;65.50
12977;DHT22;6553;48.412;9.514;2024-03-06T13:06:26;18.50;65.40
12977;DHT22;6553;48.412;9.514;2024-03-06T13:08:53;18.50;65.40
12977;DHT22;6553;48.412;9.514;2024-03-06T13:11:19;18.50;65.30
12977;DHT22;6553;48.412;9.514;2024-03-06T13:13:45;18.50;65.30
12977;DHT22;6553;48.412;9.514;2024-03-06T13:16:10;18.50;65.40
12977;DHT22;6553;48.412;9.514;2024-03-06T13:18:37;18.50;65.40
12977;DHT22;6553;48.412;9.514;2024-03-06T13:21:03;18.50;65.40
12977;DHT22;6553;48.412;9.514;2024-03-06T13:23:28;18.50;66.20
12977;DHT22;6553;48.412;9.514;2024-03-06T13:25:54;18.50;65.50
12977;DHT22;6553;48.412;9.514;2024-03-06T13:28:20;18.50;65.40
12977;DHT22;6553;48.412;9.514;2024-03-06T13:30:46;18.50;65.40
12977;DHT22;6553;48.412;9.514;2024-03-06T13:33:12;18.50;65.40
12977;DHT22;6553;48.412;9.514;2024-03-06T13:35:37;18.50;65.40
12977;DHT22;6553;48.412;9.514;2024-03-06T13:38:03;18.50;65.50
12977;DHT22;6553;48.412;9.514;2024-03-06T13:40:29;18.50;65.60
12977;DHT22;6553;48.412;9.514;2024-03-06T13:42:54;18.50;65.70
12977;DHT22;6553;48.412;9.514;2024-03-06T13:45:20;18.50;65.60
12977;DHT22;6553;48.412;9.514;2024-03-06T13:47:46;18.50;65.60
12977;DHT22;6553;48.412;9.514;2024-03-06T13:50:14;18.50;65.50
12977;DHT22;6553;48.412;9.514;2024-03-06T13:52:41;18.50;65.50
12977;DHT22;6553;48.412;9.514;2024-03-06T13:55:08;18.50;65.30
12977;DHT22;6553;48.412;9.514;2024-03-06T13:57:36;18.50;65.30
12977;DHT22;6553;48.412;9.514;2024-03-06T14:00:04;18.50;65.30
12977;DHT22;6553;48.412;9.514;2024-03-06T14:02:39;18.50;65.30
12977;DHT22;6553;48.412;9.514;2024-03-06T14:05:06;18.50;65.30
12977;DHT22;6553;48.412;9.514;2024-03-06T14:07:33;18.50;65.30
12977;DHT22;6553;48.412;9.514;2024-03-06T14:10:00;18.50;65.30
12977;DHT22;6553;48.412;9.514;2024-03-06T14:12:25;18.50;65.30
12977;DHT22;6553;48.412;9.514;2024-03-06T14:14:51;18.50;65.30
12977;DHT22;6553;48.412;9.514;2024-03-06T14:17:17;18.50;65.30
12977;DHT22;6553;48.412;9.514;2024-03-06T14:19:43;18.50;65.30
12977;DHT22;6553;48.412;9.514;2024-03-06T14:22:11;18.50;65.30
12977;DHT22;6553;48.412;9.514;2024-03-06T14:24:37;18.50;65.40
12977;DHT22;6553;48.412;9.514;2024-03-06T14:27:03;18.50;65.40
12977;DHT22;6553;48.412;9.514;2024-03-06T14:29:32;18.50;65.40
12977;DHT22;6553;48.412;9.514;2024-03-06T14:31:58;18.50;65.40
12977;DHT22;6553;48.412;9.514;2024-03-06T14:34:24;18.50;65.30
12977;DHT22;6553;48.412;9.514;2024-03-06T14:36:51;18.50;65.30
12977;DHT22;6553;48.412;9.514;2024-03-06T14:39:17;18.50;65.40
12977;DHT22;6553;48.412;9.514;2024-03-06T14:41:43;18.50;65.30
12977;DHT22;6553;48.412;9.514;2024-03-06T14:44:10;18.50;65.40
12977;DHT22;6553;48.412;9.514;2024-03-06T14:46:36;18.50;65.30
12977;DHT22;6553;48.412;9.514;2024-03-06T14:49:02;18.50;65.40
12977;DHT22;6553;48.412;9.514;2024-03-06T14:51:28;18.50;65.30
12977;DHT22;6553;48.412;9.514;2024-03-06T14:53:54;18.50;65.30
12977;DHT22;6553;48.412;9.514;2024-03-06T14:56:20;18.50;65.40
12977;DHT22;6553;48.412;9.514;2024-03-06T14:58:47;18.50;65.30
12977;DHT22;6553;48.412;9.514;2024-03-06T15:01:13;18.50;65.40
12977;DHT22;6553;48.412;9.514;2024-03-06T15:03:39;18.50;65.50
12977;DHT22;6553;48.412;9.514;2024-03-06T15:06:06;18.50;65.60
12977;DHT22;6553;48.412;9.514;2024-03-06T15:08:36;18.50;65.50
12977;DHT22;6553;48.412;9.514;2024-03-06T15:11:01;18.50;65.60
12977;DHT22;6553;48.412;9.514;2024-03-06T15:13:28;18.50;65.60
12977;DHT22;6553;48.412;9.514;2024-03-06T15:15:54;18.50;65.60
12977;DHT22;6553;48.412;9.514;2024-03-06T15:18:20;18.50;65.70
12977;DHT22;6553;48.412;9.514;2024-03-06T15:20:46;18.50;65.60
12977;DHT22;6553;48.412;9.514;2024-03-06T15:23:12;18.50;65.60
12977;DHT22;6553;48.412;9.514;2024-03-06T15:25:37;18.50;65.50
12977;DHT22;6553;48.412;9.514;2024-03-06T15:28:04;18.50;65.60
12977;DHT22;6553;48.412;9.514;2024-03-06T15:30:29;18.50;65.70
12977;DHT22;6553;48.412;9.514;2024-03-06T15:32:57;18.50;65.60
12977;DHT22;6553;48.412;9.514;2024-03-06T15:35:23;18.50;65.60
12977;DHT22;6553;48.412;9.514;2024-03-06T15:37:49;18.50;65.60
12977;DHT22;6553;48.412;9.514;2024-03-06T15:40:15;18.50;65.60
12977;DHT22;6553;48.412;9.514;2024-03-06T15:42:41;18.50;65.60
12977;DHT22;6553;48.412;9.514;2024-03-06T15:45:11;18.50;65.60
12977;DHT22;6553;48.412;9.514;2024-03-06T15:47:37;18.50;65.60
12977;DHT22;6553;48.412;9.514;2024-03-06T15:50:04;18.50;65.60
12977;DHT22;6553;48.412;9.514;2024-03-06T15:52:35;18.50;65.60
12977;DHT22;6553;48.412;9.514;2024-03-06T15:55:07;18.50;65.60
12977;DHT22;6553;48.412;9.514;2024-03-06T15:57:37;18.50;65.60
12977;DHT22;6553;48.412;9.514;2024-03-06T16:00:09;18.50;65.60
12977;DHT22;6553;48.412;9.514;2024-03-06T16:02:40;18.50;65.60